createdAt,value
2023-02-15T00:01:39.720Z,61.79
2023-02-15T00:04:11.911Z,66.57
2023-02-15T00:06:42.605Z,63.83
2023-02-15T00:09:14.013Z,60.96
2023-02-15T00:11:51.267Z,58.13
2023-02-15T00:14:22.917Z,56.57
2023-02-15T00:16:54.278Z,58.82
2023-02-15T00:19:25.376Z,59.98
2023-02-15T00:21:56.821Z,64.11
2023-02-15T00:24:27.801Z,65.13
2023-02-15T00:26:58.764Z,60.43
2023-02-15T00:29:29.785Z,56.10
2023-02-15T00:32:00.403Z,56.34
2023-02-15T00:34:31.660Z,58.23
2023-02-15T00:37:02.352Z,60.21
2023-02-15T00:39:33.382Z,61.63
2023-02-15T00:42:04.176Z,66.01
2023-02-15T00:44:34.954Z,65.68
2023-02-15T00:47:05.912Z,61.17
2023-02-15T00:49:38.065Z,59.91
2023-02-15T00:52:08.822Z,56.48
2023-02-15T00:54:41.302Z,55.88
2023-02-15T00:57:12.003Z,58.55
2023-02-15T00:59:43.248Z,59.70
2023-02-15T01:02:14.079Z,61.00
2023-02-15T01:04:45.727Z,65.42
2023-02-15T01:07:16.333Z,66.28
2023-02-15T01:09:47.411Z,62.76
2023-02-15T01:12:18.330Z,60.26
2023-02-15T01:14:51.849Z,55.86
2023-02-15T01:17:24.625Z,55.64
2023-02-15T01:19:55.462Z,58.13
2023-02-15T01:22:26.095Z,60.22
2023-02-15T01:24:57.337Z,60.84
2023-02-15T01:27:28.068Z,65.34
2023-02-15T01:29:59.449Z,64.41
2023-02-15T01:32:30.253Z,60.42
2023-02-15T01:35:01.307Z,56.94
2023-02-15T01:37:34.091Z,58.49
2023-02-15T01:40:06.647Z,60.01
2023-02-15T01:42:37.661Z,60.61
2023-02-15T01:45:16.507Z,65.08
2023-02-15T01:47:49.037Z,65.71
2023-02-15T01:50:23.656Z,62.98
2023-02-15T01:52:56.079Z,59.36
2023-02-15T01:55:29.386Z,57.29
2023-02-15T01:58:00.831Z,59.14
2023-02-15T02:00:31.985Z,58.89
2023-02-15T02:03:03.659Z,61.99
2023-02-15T02:05:34.917Z,66.03
2023-02-15T02:08:05.976Z,64.51
2023-02-15T02:10:36.999Z,61.29
2023-02-15T02:13:09.011Z,56.42
2023-02-15T02:15:46.663Z,55.36
2023-02-15T02:18:23.538Z,56.38
2023-02-15T02:21:07.840Z,58.10
2023-02-15T02:23:46.614Z,61.63
2023-02-15T02:26:37.257Z,65.25
2023-02-15T02:29:31.132Z,66.10
2023-02-15T02:32:14.400Z,63.77
2023-02-15T02:34:47.753Z,59.36
2023-02-15T02:37:21.050Z,55.47
2023-02-15T02:39:54.853Z,55.51
2023-02-15T02:42:30.018Z,57.25
2023-02-15T02:45:03.908Z,59.74
2023-02-15T02:47:37.089Z,62.69
2023-02-15T02:50:09.193Z,64.36
2023-02-15T02:52:42.041Z,64.09
2023-02-15T02:55:14.874Z,61.83
2023-02-15T02:57:49.445Z,59.15
2023-02-15T03:00:20.790Z,56.49
2023-02-15T03:02:53.602Z,57.16
2023-02-15T03:05:27.510Z,61.31
2023-02-15T03:07:59.797Z,60.73
2023-02-15T03:10:31.104Z,63.89
2023-02-15T03:13:02.384Z,65.95
2023-02-15T03:16:05.805Z,64.39
2023-02-15T03:18:38.873Z,60.54
2023-02-15T03:21:10.081Z,56.77
2023-02-15T03:23:42.397Z,56.13
2023-02-15T03:26:13.290Z,57.18
2023-02-15T03:28:45.377Z,58.79
2023-02-15T03:31:17.404Z,60.29
2023-02-15T03:33:52.362Z,64.60
2023-02-15T03:36:25.129Z,66.14
2023-02-15T03:39:01.096Z,63.41
2023-02-15T03:41:34.640Z,59.62
2023-02-15T03:44:08.457Z,56.69
2023-02-15T03:46:45.142Z,57.61
2023-02-15T03:49:18.785Z,60.91
2023-02-15T03:51:51.365Z,64.08
2023-02-15T03:54:38.402Z,63.74
2023-02-15T03:57:27.212Z,62.31
2023-02-15T04:00:15.687Z,58.41
2023-02-15T04:02:52.045Z,58.45
2023-02-15T04:05:23.191Z,61.52
2023-02-15T04:07:53.895Z,64.99
2023-02-15T04:10:42.545Z,63.14
2023-02-15T04:13:13.082Z,60.93
2023-02-15T04:16:02.598Z,57.95
2023-02-15T04:18:52.126Z,57.43
2023-02-15T04:21:41.089Z,61.58
2023-02-15T04:24:30.316Z,63.83
2023-02-15T04:27:01.801Z,61.53
2023-02-15T04:29:32.867Z,60.50
2023-02-15T04:32:04.109Z,57.25
2023-02-15T04:34:34.766Z,57.72
2023-02-15T04:37:05.857Z,60.24
2023-02-15T04:39:36.389Z,64.18
2023-02-15T04:42:07.346Z,64.68
2023-02-15T04:44:37.855Z,62.39
2023-02-15T04:47:08.749Z,60.89
2023-02-15T04:49:39.520Z,58.46
2023-02-15T04:52:10.528Z,57.77
2023-02-15T04:54:41.290Z,59.21
2023-02-15T04:57:12.340Z,61.33
2023-02-15T04:59:42.969Z,64.56
2023-02-15T05:02:13.659Z,64.54
2023-02-15T05:04:44.380Z,62.29
2023-02-15T05:07:19.257Z,61.37
2023-02-15T05:09:49.806Z,57.89
2023-02-15T05:12:20.762Z,58.44
2023-02-15T05:14:51.566Z,58.82
2023-02-15T05:17:22.602Z,59.54
2023-02-15T05:19:53.130Z,61.78
2023-02-15T05:22:24.480Z,65.59
2023-02-15T05:25:12.935Z,65.18
2023-02-15T05:28:03.302Z,63.81
2023-02-15T05:30:35.195Z,61.66
2023-02-15T05:33:06.282Z,58.20
2023-02-15T05:35:38.312Z,58.83
2023-02-15T05:38:09.440Z,60.27
2023-02-15T05:40:39.983Z,61.22
2023-02-15T05:43:11.158Z,64.59
2023-02-15T05:45:41.885Z,66.91
2023-02-15T05:48:12.961Z,64.50
2023-02-15T05:50:43.472Z,61.65
2023-02-15T05:53:15.684Z,59.95
2023-02-15T05:55:46.440Z,57.20
2023-02-15T05:58:18.576Z,56.64
2023-02-15T06:00:49.518Z,57.54
2023-02-15T06:03:20.418Z,60.77
2023-02-15T06:05:51.216Z,64.87
2023-02-15T06:08:22.240Z,65.91
2023-02-15T06:10:52.865Z,63.77
2023-02-15T06:13:23.897Z,60.66
2023-02-15T06:15:54.596Z,58.12
2023-02-15T06:18:25.773Z,57.84
2023-02-15T06:20:56.426Z,58.56
2023-02-15T06:23:28.068Z,61.59
2023-02-15T06:25:58.937Z,65.26
2023-02-15T06:28:30.048Z,63.30
2023-02-15T06:31:00.889Z,60.44
2023-02-15T06:33:34.810Z,58.47
2023-02-15T06:36:05.926Z,58.73
2023-02-15T06:38:37.124Z,61.57
2023-02-15T06:41:07.696Z,64.70
2023-02-15T06:43:40.882Z,63.37
2023-02-15T06:46:11.873Z,62.55
2023-02-15T06:48:42.830Z,60.06
2023-02-15T06:51:13.389Z,57.62
2023-02-15T06:53:45.604Z,57.83
2023-02-15T06:56:16.296Z,62.65
2023-02-15T06:58:47.639Z,63.75
2023-02-15T07:01:18.595Z,61.71
2023-02-15T07:03:49.613Z,59.97
2023-02-15T07:06:20.304Z,58.56
2023-02-15T07:08:51.454Z,60.35
2023-02-15T07:11:39.473Z,62.90
2023-02-15T07:14:10.616Z,64.91
2023-02-15T07:16:41.400Z,61.36
2023-02-15T07:19:12.508Z,58.42
2023-02-15T07:21:43.284Z,59.16
2023-02-15T07:24:14.262Z,62.77
2023-02-15T07:26:44.844Z,63.99
2023-02-15T07:29:16.809Z,62.56
2023-02-15T07:31:47.750Z,59.65
2023-02-15T07:34:18.989Z,58.32
2023-02-15T07:36:49.722Z,60.28
2023-02-15T07:39:20.886Z,63.58
2023-02-15T07:41:51.418Z,63.53
2023-02-15T07:44:22.642Z,61.35
2023-02-15T07:46:53.286Z,58.55
2023-02-15T07:49:24.462Z,59.53
2023-02-15T07:51:55.224Z,61.36
2023-02-15T07:54:26.500Z,64.51
2023-02-15T07:56:57.437Z,63.52
2023-02-15T07:59:28.990Z,61.45
2023-02-15T08:01:59.508Z,58.98
2023-02-15T08:04:30.425Z,57.93
2023-02-15T08:07:00.881Z,60.38
2023-02-15T08:09:32.535Z,62.36
2023-02-15T08:12:03.784Z,64.41
2023-02-15T08:14:34.860Z,62.36
2023-02-15T08:17:06.474Z,60.65
2023-02-15T08:19:38.741Z,57.92
2023-02-15T08:22:11.430Z,57.94
2023-02-15T08:24:43.761Z,61.37
2023-02-15T08:27:14.739Z,63.05
2023-02-15T08:29:45.930Z,61.59
2023-02-15T08:32:16.688Z,58.47
2023-02-15T08:34:48.286Z,58.01
2023-02-15T08:37:18.998Z,60.37
2023-02-15T08:39:50.043Z,62.50
2023-02-15T08:42:22.212Z,61.68
2023-02-15T08:44:53.093Z,59.38
2023-02-15T08:47:23.680Z,58.04
2023-02-15T08:49:55.283Z,60.15
2023-02-15T08:52:26.785Z,62.71
2023-02-15T08:54:57.813Z,63.48
2023-02-15T08:57:29.729Z,61.62
2023-02-15T09:00:00.765Z,58.13
2023-02-15T09:02:31.360Z,58.14
2023-02-15T09:05:02.488Z,61.20
2023-02-15T09:07:33.003Z,63.62
2023-02-15T09:10:03.919Z,61.77
2023-02-15T09:12:34.585Z,59.61
2023-02-15T09:15:06.196Z,57.06
2023-02-15T09:17:36.784Z,58.47
2023-02-15T09:20:09.820Z,61.94
2023-02-15T09:22:40.484Z,62.45
2023-02-15T09:25:11.557Z,59.08
2023-02-15T09:27:42.477Z,57.58
2023-02-15T09:30:14.977Z,60.31
2023-02-15T09:32:47.216Z,61.69
2023-02-15T09:35:22.994Z,64.42
2023-02-15T09:37:53.854Z,63.09
2023-02-15T09:40:25.831Z,60.10
2023-02-15T09:43:12.095Z,57.14
2023-02-15T09:45:53.463Z,57.83
2023-02-15T09:48:40.761Z,59.64
2023-02-15T09:51:31.576Z,63.84
2023-02-15T09:54:12.509Z,61.33
2023-02-15T09:56:48.624Z,58.04
2023-02-15T09:59:22.781Z,59.18
2023-02-15T10:01:58.099Z,60.08
2023-02-15T10:04:38.369Z,62.86
2023-02-15T10:07:15.697Z,62.66
2023-02-15T10:09:52.134Z,59.71
2023-02-15T10:12:36.943Z,58.27
2023-02-15T10:15:15.651Z,59.21
2023-02-15T10:17:53.207Z,61.30
2023-02-15T10:20:28.461Z,63.36
2023-02-15T10:23:08.305Z,62.48
2023-02-15T10:25:42.801Z,58.27
2023-02-15T10:28:17.606Z,57.08
2023-02-15T10:30:51.795Z,58.80
2023-02-15T10:33:34.848Z,60.51
2023-02-15T10:36:14.052Z,61.67
2023-02-15T10:38:47.175Z,63.57
2023-02-15T10:41:23.666Z,61.34
2023-02-15T10:44:05.203Z,56.65
2023-02-15T10:46:44.727Z,57.47
2023-02-15T10:49:20.946Z,59.45
2023-02-15T10:51:58.327Z,61.55
2023-02-15T10:54:33.926Z,63.23
2023-02-15T10:57:07.239Z,60.91
2023-02-15T10:59:42.641Z,57.39
2023-02-15T11:02:19.289Z,57.26
2023-02-15T11:04:53.610Z,58.93
2023-02-15T11:07:26.657Z,60.40
2023-02-15T11:10:02.485Z,60.78
2023-02-15T11:12:34.096Z,62.97
2023-02-15T11:15:06.643Z,61.68
2023-02-15T11:17:39.969Z,55.99
2023-02-15T11:20:17.808Z,56.60
2023-02-15T11:22:50.674Z,58.59
2023-02-15T11:25:25.938Z,59.01
2023-02-15T11:27:57.892Z,60.46
2023-02-15T11:44:18.406Z,56.48
2023-02-15T11:46:49.302Z,57.96
2023-02-15T11:49:25.204Z,59.22
2023-02-15T11:51:56.623Z,60.89
2023-02-15T11:54:29.866Z,61.54
2023-02-15T11:56:58.893Z,61.57
2023-02-15T11:59:32.763Z,62.47
2023-02-15T12:02:03.449Z,61.61
2023-02-15T12:04:40.559Z,57.30
2023-02-15T12:07:16.370Z,56.01
2023-02-15T12:09:49.633Z,56.39
2023-02-15T12:12:24.519Z,58.48
2023-02-15T12:14:56.202Z,59.95
2023-02-15T12:17:28.464Z,59.99
2023-02-15T12:20:00.630Z,60.84
2023-02-15T12:22:32.963Z,61.16
2023-02-15T12:25:06.660Z,61.12
2023-02-15T12:27:38.176Z,62.21
2023-02-15T12:30:20.228Z,62.55
2023-02-15T12:32:54.032Z,57.39
2023-02-15T12:35:30.240Z,56.79
2023-02-15T12:38:03.570Z,57.30
2023-02-15T12:40:35.429Z,58.60
2023-02-15T12:43:09.775Z,57.82
2023-02-15T12:45:41.129Z,59.45
2023-02-15T12:48:17.047Z,59.72
2023-02-15T12:51:06.269Z,60.51
2023-02-15T12:53:38.071Z,60.96
2023-02-15T12:56:10.019Z,60.90
2023-02-15T12:58:47.125Z,61.04
2023-02-15T13:01:22.862Z,61.71
2023-02-15T13:03:58.722Z,61.20
2023-02-15T13:06:31.305Z,60.52
2023-02-15T13:09:08.485Z,61.16
2023-02-15T13:11:40.263Z,61.30
2023-02-15T13:14:19.022Z,61.39
2023-02-15T13:16:51.463Z,61.70
2023-02-15T13:19:25.548Z,61.67
2023-02-15T13:21:58.414Z,61.19
2023-02-15T13:24:30.682Z,61.20
2023-02-15T13:27:14.594Z,61.10
2023-02-15T13:29:47.369Z,61.30
2023-02-15T13:32:24.520Z,61.56
2023-02-15T13:34:58.020Z,61.43
2023-02-15T13:37:37.988Z,61.64
2023-02-15T13:40:15.626Z,61.96
2023-02-15T13:42:49.235Z,62.53
2023-02-15T13:45:36.084Z,59.11
2023-02-15T13:48:12.533Z,55.14
2023-02-15T13:50:54.129Z,52.12
2023-02-15T13:53:39.302Z,51.28
2023-02-15T13:56:14.478Z,48.50
2023-02-15T13:59:15.064Z,49.04
2023-02-15T14:01:47.829Z,45.71
2023-02-15T14:04:32.261Z,46.12
2023-02-15T14:07:11.059Z,45.59
2023-02-15T14:09:49.140Z,44.76
2023-02-15T14:12:35.806Z,44.48
2023-02-15T14:15:20.226Z,44.71
2023-02-15T14:17:55.830Z,44.54
2023-02-15T14:20:27.974Z,42.86
2023-02-15T14:23:01.321Z,42.59
2023-02-15T14:25:36.085Z,41.51
2023-02-15T14:28:10.155Z,42.52
2023-02-15T14:30:43.741Z,40.06
2023-02-15T14:33:25.728Z,39.36
2023-02-15T14:36:01.732Z,41.01
2023-02-15T14:38:40.216Z,40.53
2023-02-15T14:41:14.668Z,41.23
2023-02-15T14:43:49.406Z,40.05
2023-02-15T14:46:24.922Z,40.39
2023-02-15T14:48:57.053Z,42.07
2023-02-15T14:51:49.351Z,41.96
2023-02-15T14:54:41.638Z,41.88
2023-02-15T14:57:26.435Z,41.94
2023-02-15T15:00:00.036Z,42.25
2023-02-15T15:02:41.589Z,41.85
2023-02-15T15:05:17.955Z,43.44
2023-02-15T15:07:50.731Z,43.22
2023-02-15T15:10:41.579Z,43.07
2023-02-15T15:13:29.651Z,44.01
2023-02-15T15:16:20.614Z,43.58
2023-02-15T15:18:51.828Z,44.79
2023-02-15T15:21:40.478Z,44.83
2023-02-15T15:24:45.112Z,45.49
2023-02-15T15:27:36.168Z,46.77
2023-02-15T15:30:29.501Z,47.41
2023-02-15T15:32:59.490Z,48.88
2023-02-15T15:35:36.187Z,49.96
2023-02-15T15:38:15.092Z,50.98
2023-02-15T15:40:57.492Z,52.14
2023-02-15T15:43:42.360Z,53.38
2023-02-15T15:46:21.086Z,54.50
2023-02-15T15:48:56.398Z,55.24
2023-02-15T15:51:30.736Z,56.29
2023-02-15T15:54:02.086Z,56.82
2023-02-15T15:56:35.687Z,58.14
2023-02-15T15:59:07.919Z,58.57
2023-02-15T16:01:42.651Z,59.11
2023-02-15T16:04:14.448Z,59.78
2023-02-15T16:06:46.850Z,60.98
2023-02-15T16:09:20.060Z,61.78
2023-02-15T16:11:53.239Z,64.58
2023-02-15T16:14:27.616Z,67.32
2023-02-15T16:17:04.744Z,62.23
2023-02-15T16:19:41.422Z,60.17
2023-02-15T16:22:12.950Z,57.39
2023-02-15T16:24:51.404Z,58.45
2023-02-15T16:27:44.608Z,60.11
2023-02-15T16:30:26.806Z,64.24
2023-02-15T16:33:05.321Z,66.23
2023-02-15T16:35:42.428Z,64.20
2023-02-15T16:38:13.226Z,61.28
2023-02-15T16:40:54.959Z,58.49
2023-02-15T16:43:28.452Z,56.09
2023-02-15T16:46:05.287Z,56.78
2023-02-15T16:48:43.098Z,58.65
2023-02-15T16:51:21.119Z,59.98
2023-02-15T16:53:52.111Z,64.28
2023-02-15T16:56:30.954Z,64.66
2023-02-15T16:59:07.120Z,64.44
2023-02-15T17:01:38.254Z,60.21
2023-02-15T17:04:17.027Z,57.61
2023-02-15T17:07:04.097Z,57.76
2023-02-15T17:09:35.757Z,59.63
2023-02-15T17:12:08.655Z,61.95
2023-02-15T17:14:42.559Z,66.69
2023-02-15T17:17:16.485Z,63.62
2023-02-15T17:19:55.451Z,64.04
2023-02-15T17:22:29.023Z,61.47
2023-02-15T17:25:02.734Z,57.48
2023-02-15T17:27:37.103Z,58.34
2023-02-15T17:30:16.091Z,59.85
2023-02-15T17:32:56.483Z,62.39
2023-02-15T17:35:28.655Z,65.95
2023-02-15T17:38:07.093Z,63.88
2023-02-15T17:40:38.412Z,61.52
2023-02-15T17:43:09.445Z,58.69
2023-02-15T17:45:42.974Z,58.84
2023-02-15T17:48:26.901Z,61.03
2023-02-15T17:50:58.074Z,64.51
2023-02-15T17:53:29.117Z,66.05
2023-02-15T17:56:11.187Z,64.60
2023-02-15T17:58:46.013Z,62.22
2023-02-15T18:01:42.617Z,61.62
2023-02-15T18:04:36.017Z,58.97
2023-02-15T18:07:29.483Z,55.93
2023-02-15T18:10:26.737Z,57.42
2023-02-15T18:13:02.658Z,58.86
2023-02-15T18:15:33.423Z,60.45
2023-02-15T18:18:05.108Z,66.01
2023-02-15T18:20:37.186Z,68.85
2023-02-15T18:23:10.773Z,66.46
2023-02-15T18:25:41.697Z,63.26
2023-02-15T18:28:18.054Z,61.41
2023-02-15T18:30:53.454Z,59.22
2023-02-15T18:33:31.073Z,56.79
2023-02-15T18:36:06.981Z,56.51
2023-02-15T18:38:42.509Z,59.03
2023-02-15T18:41:19.661Z,61.26
2023-02-15T18:43:55.859Z,66.61
2023-02-15T18:46:26.616Z,68.36
2023-02-15T18:49:02.509Z,64.93
2023-02-15T18:51:39.979Z,62.05
2023-02-15T18:54:17.184Z,60.29
2023-02-15T18:56:54.372Z,57.53
2023-02-15T18:59:30.469Z,57.49
2023-02-15T19:02:02.039Z,61.12
2023-02-15T19:04:33.120Z,65.91
2023-02-15T19:07:08.650Z,64.75
2023-02-15T19:09:40.080Z,62.27
2023-02-15T19:12:13.326Z,59.90
2023-02-15T19:14:48.648Z,58.13
2023-02-15T19:17:24.964Z,60.41
2023-02-15T19:19:55.976Z,64.89
2023-02-15T19:22:28.942Z,67.16
2023-02-15T19:25:01.030Z,64.25
2023-02-15T19:27:33.051Z,61.91
2023-02-15T19:30:05.880Z,59.81
2023-02-15T19:32:36.787Z,57.96
2023-02-15T19:35:08.688Z,59.21
2023-02-15T19:37:42.473Z,61.40
2023-02-15T19:40:19.742Z,66.66
2023-02-15T19:42:50.837Z,67.89
2023-02-15T19:45:27.803Z,64.61
2023-02-15T19:48:03.626Z,62.20
2023-02-15T19:50:39.873Z,60.37
2023-02-15T19:53:16.896Z,58.09
2023-02-15T19:55:47.804Z,60.05
2023-02-15T19:58:20.442Z,61.68
2023-02-15T20:00:56.140Z,67.88
2023-02-15T20:03:32.078Z,67.63
2023-02-15T20:06:03.195Z,64.57
2023-02-15T20:08:34.052Z,62.30
2023-02-15T20:11:10.392Z,61.01
2023-02-15T20:13:41.899Z,59.49
2023-02-15T20:16:12.966Z,56.71
2023-02-15T20:18:46.679Z,59.10
2023-02-15T20:21:19.526Z,63.64
2023-02-15T20:23:55.406Z,62.68
2023-02-15T20:26:31.712Z,62.05
2023-02-15T20:29:07.269Z,60.04
2023-02-15T20:31:43.474Z,58.26
2023-02-15T20:34:14.637Z,61.69
2023-02-15T20:36:45.191Z,65.73
2023-02-15T20:39:17.685Z,66.56
2023-02-15T20:41:51.123Z,63.74
2023-02-15T20:44:23.626Z,63.03
2023-02-15T20:46:55.488Z,61.51
2023-02-15T20:49:33.031Z,58.39
2023-02-15T20:52:04.756Z,61.12
2023-02-15T20:54:37.376Z,65.84
2023-02-15T20:57:13.141Z,65.81
2023-02-15T20:59:48.526Z,64.79
2023-02-15T21:02:20.431Z,64.02
2023-02-15T21:04:51.477Z,63.05
2023-02-15T21:07:26.418Z,61.38
2023-02-15T21:09:57.809Z,59.37
2023-02-15T21:12:28.840Z,58.29
2023-02-15T21:14:59.821Z,59.48
2023-02-15T21:17:30.634Z,65.22
2023-02-15T21:20:01.650Z,67.13
2023-02-15T21:22:32.387Z,63.98
2023-02-15T21:25:08.537Z,61.18
2023-02-15T21:27:44.676Z,58.90
2023-02-15T21:30:22.204Z,62.94
2023-02-15T21:32:53.522Z,65.50
2023-02-15T21:35:24.207Z,62.10
2023-02-15T21:37:55.164Z,60.89
2023-02-15T21:40:28.453Z,60.99
2023-02-15T21:43:17.560Z,60.31
2023-02-15T21:46:06.276Z,59.04
2023-02-15T21:48:37.172Z,60.68
2023-02-15T21:51:25.700Z,67.44
2023-02-15T21:53:57.060Z,66.27
2023-02-15T21:56:27.967Z,64.09
2023-02-15T21:58:58.830Z,63.17
2023-02-15T22:01:30.187Z,63.63
2023-02-15T22:04:01.108Z,62.05
2023-02-15T22:06:32.409Z,61.46
2023-02-15T22:09:03.097Z,60.93
2023-02-15T22:11:34.399Z,59.87
2023-02-15T22:14:05.181Z,58.56
2023-02-15T22:16:36.133Z,60.16
2023-02-15T22:19:07.222Z,64.10
2023-02-15T22:21:38.209Z,67.53
2023-02-15T22:24:09.439Z,65.96
2023-02-15T22:26:40.439Z,63.78
2023-02-15T22:29:14.748Z,61.55
2023-02-15T22:31:45.615Z,60.55
2023-02-15T22:34:24.317Z,58.75
2023-02-15T22:36:56.109Z,57.67
2023-02-15T22:39:27.098Z,59.71
2023-02-15T22:41:58.513Z,65.44
2023-02-15T22:44:31.200Z,66.44
2023-02-15T22:47:02.771Z,63.90
2023-02-15T22:49:33.662Z,63.18
2023-02-15T22:52:04.437Z,63.00
2023-02-15T22:54:35.541Z,62.47
2023-02-15T22:57:06.688Z,61.25
2023-02-15T22:59:37.570Z,60.41
2023-02-15T23:02:11.975Z,60.11
2023-02-15T23:04:42.981Z,57.93
2023-02-15T23:07:15.895Z,60.63
2023-02-15T23:09:47.116Z,65.08
2023-02-15T23:12:28.398Z,64.21
2023-02-15T23:14:59.643Z,61.50
2023-02-15T23:17:30.376Z,61.74
2023-02-15T23:20:01.114Z,62.74
2023-02-15T23:22:32.140Z,62.23
2023-02-15T23:25:02.920Z,60.17
2023-02-15T23:27:51.469Z,58.59
2023-02-15T23:30:23.141Z,62.63
2023-02-15T23:32:54.738Z,66.83
2023-02-15T23:35:26.109Z,64.17
2023-02-15T23:37:56.612Z,62.51
2023-02-15T23:40:44.853Z,61.86
2023-02-15T23:43:19.923Z,61.12
2023-02-15T23:45:50.999Z,60.37
2023-02-15T23:48:33.028Z,58.66
2023-02-15T23:51:05.762Z,62.71
2023-02-15T23:53:36.580Z,65.72
2023-02-15T23:56:08.145Z,64.36
2023-02-15T23:58:40.714Z,62.17
